Weather at Montreal / Point Zero Helipad

Public forecast

Using degrees Celsius for public forecast. Weather courtesy of forecast.io.

Closest aviation weather report (METAR) to Montreal / Point Zero Helipad

Closest report is Montreal / Pierre Elliott Trudeau International Airport, 5.1 nm (9.5 km) SW.

2024/05/18 23:00 (retrieved 30 minutes ago)

CYUL 182300Z 11008KT 30SM BKN060 BKN090 22/12 A2995 RMK CU5AC1 AC TR SLP145 DENSITY ALT 900FT

Closest aviation forecast (TAF) to Montreal / Point Zero Helipad

Closest forecast is Montreal / Pierre Elliott Trudeau International Airport, 5.1 nm (9.5 km) SW.

2024/05/18 21:42 (retrieved 2 hours ago)

TAF CYUL 182040Z 1821/1918 11010G20KT P6SM FEW040 BECMG 1822/1823 13010KT FM190100 13008KT P6SM FEW110 RMK NXT FCST BY 190000Z